San Antonio, Valles Caldera, New Mexico Weather observations

Data are for 10 minute period ending at time listed.
 Day   Time   Solar   Ave.   Ave.  Ave.  Vector  Max.   Baro.   Total    
  of    of     Rad.   Air    Rel.  Wind   Wind   Wind  Press.  Precip.   
Year   Day            Temp.  Hum.  Speed  Dir.   Gust                    
2014   (MST)  Kw/m2    F      %     mph   deg.    mph    mb.     in.     
-------------------------------------------------------------------------
 106   11:20   0.72   56.6    15   10.9   277    18.5   501.1    0.00 
 106   11:30   0.41   55.6    15   10.7   278    17.9   501.1    0.00 
 106   11:40   0.35   53.3    17   12.2   250    19.7   501.1    0.00 
 106   11:50   0.55   54.0    16   10.6   271    19.7   501.1    0.00 
 106   12:00   0.47   54.4    15   12.9   256    19.1   501.1    0.00 
 106   12:10   0.58   54.2    15    9.4   262    16.7   501.1    0.00 
 106   12:20   0.58   55.2    14   10.9   270    22.7   501.1    0.00 
 106   12:30   0.97   56.4    14   11.9   272    19.7   501.1    0.00 
 106   12:40   0.93   57.2    14   11.5   260    19.1   501.1    0.00 
 106   12:50   0.82   57.4    14   12.1   268    26.8   501.1    0.00 
 106   13:00   0.69   55.7    14   13.8   261    23.3   501.1    0.00 
 106   13:10   0.96   57.8    14   14.8   273    22.1   501.1    0.00 
 106   13:20   0.90   57.8    14   14.0   264    20.9   501.1    0.00 
 106   13:30   1.05   58.7    14   11.8   273    23.9   501.1    0.00 
 106   13:40   0.50   57.8    13   14.6   272    23.3   501.1    0.00 
 106   13:50   0.58   55.7    14   15.2   259    23.9   501.1    0.00 
 106   14:00   0.56   56.0    13   16.0   271    23.9   501.1    0.00 
 106   14:10   0.62   55.7    13   14.4   280    25.6   501.1    0.00 
 106   14:20   0.48   56.2    13   11.1   285    21.5   501.1    0.00 
 106   14:30   0.60   56.3    13   15.3   274    26.2   501.1    0.00 
 106   14:40   0.35   54.3    14   16.3   273    26.2   501.1    0.00 
 106   14:50   0.50   54.1    15   13.6   277    21.5   501.1    0.00 
 106   15:00   0.41   54.5    16   14.4   258    25.6   501.1    0.00 
 106   15:10   0.43   55.0    16   11.5   273    18.5   501.1    0.00 
 106   15:20   0.35   54.1    16   13.1   259    25.0   501.1    0.00 
 106   15:30   0.30   53.2    17   13.6   272    25.6   501.1    0.00 
 106   15:40   0.24   52.3    17   13.2   279    21.5   501.1    0.00 
 106   15:50   0.21   51.7    17   13.4   285    24.5   501.1    0.00 
 106   16:00   0.18   51.4    18   12.2   261    19.7   501.1    0.00 
 106   16:10   0.13   51.1    18   11.3   277    16.1   501.1    0.00 
 106   16:20   0.14   50.8    18   11.4   282    17.3   501.1    0.00 
 106   16:30   0.12   50.5    19   12.4   282    20.9   501.1    0.00 
 106   16:40   0.15   50.3    19    9.1   295    14.9   501.1    0.00 
 106   16:50   0.14   50.4    20   10.1   288    16.1   501.1    0.00 
 106   17:00   0.13   50.1    20   11.6   276    19.7   501.1    0.00 
 106   17:10   0.15   50.2    21   10.4   274    16.1   501.1    0.00 
 106   17:20   0.18   50.3    22   10.3   283    14.3   501.1    0.00 
 106   17:30   0.15   50.2    22   12.0   275    20.9   501.1    0.00 
 106   17:40   0.09   49.0    23   11.9   292    20.3   501.1    0.00 
 106   17:50   0.07   48.1    24   11.2   281    18.5   501.1    0.00 
 106   18:00   0.04   47.5    26   10.6   285    18.5   501.1    0.00 
 106   18:10   0.03   46.7    27   10.4   292    17.3   501.1    0.00 
 106   18:20   0.02   46.3    28   11.1   279    16.1   501.1    0.00 
 106   18:30   0.01   45.7    30   12.6   279    22.1   501.1    0.00 
 106   18:40   0.01   44.7    33   13.1   274    22.7   501.1    0.00 
 106   18:50   0.00   43.9    35   11.1   280    20.3   501.1    0.00 
 106   19:00   0.00   43.4    37   11.3   278    18.5   501.1    0.00 
 106   19:10   0.00   43.0    39   10.5   279    14.9   501.1    0.00 
 106   19:20   0.00   42.7    41   10.5   276    18.5   501.1    0.00 
 106   19:30   0.00   42.1    45   11.2   276    16.7   501.1    0.00 
 106   19:40   0.00   41.6    46    7.0   286    12.5   501.1    0.00 
 106   19:50   0.00   41.4    47    6.1   287    10.8   501.1    0.00 
 106   20:00   0.00   41.0    48    6.7   280    11.3   501.1    0.00 
 106   20:10   0.00   40.4    48    4.6   304     7.8   501.1    0.00 
 106   20:20   0.00   39.9    49    4.1   324     6.0   501.1    0.00 
 106   20:30   0.00   39.5    50    3.2   336     4.8   501.1    0.00 
 106   20:40   0.00   39.2    51    4.0   326     7.2   501.1    0.00 
 106   20:50   0.00   38.8    51    3.7   324     5.4   501.1    0.00 
 106   21:00   0.00   38.0    53    4.9   312     8.4   501.1    0.00 
 106   21:10   0.00   36.7    55    3.8   326     6.0   501.1    0.00 
 106   21:20   0.00   35.8    56    3.7   291     5.4   501.1    0.00 
 106   21:30   0.00   34.7    58    2.9   343     4.2   501.1    0.00 
 106   21:40   0.00   35.1    57    2.8   309     4.8   501.1    0.00 
 106   21:50   0.00   33.1    61    2.3   282     4.8   501.1    0.00 
 106   22:00   0.00   31.8    64    2.5   280     4.2   501.1    0.00 
 106   22:10   0.00   31.3    66    2.2   339     4.2   501.1    0.00 
 106   22:20   0.00   31.5    65    1.4   134     2.4   501.1    0.00 
 106   22:30   0.00   31.5    65    2.1    85     4.2   501.1    0.00 
 106   22:40   0.00   31.7    64    2.8    46     4.2   501.1    0.00 
 106   22:50   0.00   31.8    63    3.3    40     4.8   501.1    0.00 
 106   23:00   0.00   31.6    63    2.2   336     3.6   501.1    0.00 
 106   23:10   0.00   30.3    66    1.2     9     3.0   501.1    0.00 
 106   23:20   0.00   30.0    67    1.1    75     2.4   501.1    0.00 
 106   23:30   0.00   30.2    66    1.6    62     3.0   501.1    0.00 
 106   23:40   0.00   29.4    67    0.9   353     2.4   501.1    0.00 
 106   23:50   0.00   28.7    70    1.8    74     3.0   501.1    0.00 
 107    0:00   0.00   28.5    70    1.5    32     3.6   501.1    0.00 
 107    0:10   0.00   27.8    71    2.1   349     3.6   501.1    0.00 
 107    0:20   0.00   28.2    72    2.4    40     3.6   501.1    0.00 
 107    0:30   0.00   27.2    72    1.7   116     3.0   501.1    0.00 
 107    0:40   0.00   25.6    76    0.2    55     1.8   501.1    0.00 
 107    0:50   0.00   25.9    76    2.2    37     3.6   501.1    0.00 
 107    1:00   0.00   26.1    76    2.1    20     3.6   501.1    0.00 
 107    1:10   0.00   25.8    76    0.3   355     1.8   501.1    0.00 
 107    1:20   0.00   25.5    77    0.8    14     1.8   501.1    0.00 
 107    1:30   0.00   25.5    77    1.6    71     3.0   501.1    0.00 
 107    1:40   0.00   25.9    77    0.9    47     2.4   501.1    0.00 
 107    1:50   0.00   25.1    77    1.4   308     3.0   501.1    0.00 
 107    2:00   0.00   23.9    79    1.7   267     3.0   501.1    0.00 
 107    2:10   0.00   23.0    82    0.6    89     2.4   501.1    0.00 
 107    2:20   0.00   23.6    82    0.3   126     2.4   501.1    0.00 
 107    2:30   0.00   24.1    80    1.1    48     2.4   501.1    0.00 
 107    2:40   0.00   23.5    81    2.0   331     3.0   501.1    0.00 
 107    2:50   0.00   23.2    82    1.2    57     2.4   501.1    0.00 
 107    3:00   0.00   21.9    83    0.9   123     1.8   501.1    0.00 
 107    3:10   0.00   21.8    85    0.6   116     1.8   501.1    0.00 
 107    3:20   0.00   22.3    85    1.4    15     2.4   501.1    0.00 
 107    3:30   0.00   22.3    84    1.2   292     3.0   501.1    0.00 
 107    3:40   0.00   21.5    84    0.4   162     1.8   501.1    0.00 
 107    3:50   0.00   20.9    85    1.7   335     2.4   501.1    0.00 
 107    4:00   0.00   21.4    87    1.0   340     1.8   501.1    0.00 
 107    4:10   0.00   20.7    85    0.0   159     1.2   501.1    0.00 
 107    4:20   0.00   20.7    87    0.0     0     0.0   501.1    0.00 
 107    4:30   0.00   21.0    88    0.8    33     1.8   501.1    0.00 
 107    4:40   0.00   21.4    86    0.4   159     2.4   501.1    0.00 
 107    4:50   0.00   20.0    86    0.2    85     2.4   501.1    0.00 
 107    5:00   0.00   20.1    88    2.0    46     3.0   501.1    0.00 
 107    5:10   0.00   20.4    88    1.6    49     3.0   501.1    0.00 
 107    5:20   0.00   20.9    87    0.8    27     2.4   501.1    0.00 
 107    5:30   0.00   21.2    87    1.6    26     3.0   501.1    0.00 
 107    5:40   0.01   20.5    85    0.9    73     2.4   501.1    0.00 
 107    5:50   0.01   20.6    88    0.7    84     2.4   501.1    0.00 
 107    6:00   0.01   20.9    87    0.7     3     2.4   501.1    0.00 
 107    6:10   0.02   20.4    86    0.7   283     2.4   501.1    0.00 
 107    6:20   0.02   19.6    86    0.3   222     2.4   501.1    0.00 
 107    6:30   0.02   19.2    87    1.5   354     3.6   501.1    0.00 
 107    6:40   0.03   19.7    88    0.1    81     2.4   501.1    0.00 
 107    6:50   0.17   22.0    87    1.0    65     2.4   501.1    0.00 
 107    7:00   0.26   28.0    73    0.7    73     2.4   501.1    0.00 
 107    7:10   0.29   33.3    64    0.1   103     1.8   501.1    0.00 
 107    7:20   0.32   35.1    58    1.0    47     3.6   501.1    0.00 
 107    7:30   0.35   35.7    62    1.2   267     3.6   501.1    0.00 
 107    7:40   0.39   38.6    57    0.9   240     3.6   501.1    0.00 
 107    7:50   0.43   39.4    57    0.9   125     3.0   501.1    0.00 
 107    8:00   0.47   39.1    59    2.7   224     4.8   501.1    0.00 
 107    8:10   0.51   40.0    59    2.0   274     4.2   501.1    0.00 
 107    8:20   0.55   44.5    50    2.2   252     3.6   501.1    0.00 
 107    8:30   0.58   44.4    45    2.3   175     4.2   501.1    0.00 
 107    8:40   0.61   44.7    44    3.3   232     7.2   501.1    0.00 
 107    8:50   0.64   45.2    44    4.0    82     7.8   501.1    0.00 
 107    9:00   0.67   44.7    44    3.7   191     9.6   501.1    0.00 
 107    9:10   0.70   45.7    42    2.7   102     5.4   501.1    0.00 
 107    9:20   0.73   46.3    41    3.5   118     6.0   501.1    0.00 
 107    9:30   0.76   47.2    38    4.2    61     8.4   501.1    0.00 
 107    9:40   0.79   48.7    36    4.3   340     7.2   501.1    0.00 
 107    9:50   0.81   49.1    33    4.2   190     8.4   501.1    0.00 
 107   10:00   0.83   49.2    32    5.6   239    11.9   501.1    0.00 
 107   10:10   0.84   50.3    31    7.9   250    13.1   501.1    0.00 
 107   10:20   0.88   49.1    32    7.5   238    11.9   501.1    0.00 
 107   10:30   0.91   50.7    31    7.8   265    16.1   501.1    0.00 
 107   10:40   0.91   51.9    29    5.5   295    11.9   501.1    0.00 
 107   10:50   0.93   51.5    29    5.4   226    10.2   501.1    0.00 
 107   11:00   0.94   51.7    29    6.1   251    12.5   501.1    0.00 
 107   11:10   0.90   51.7    30    7.7   250    14.3   501.1    0.00 

Return to San Antonio, Valles Caldera graphs page.


Western Regional Climate Center,wrcc@dri.edu